createdAt,value
2023-03-16T00:01:29.814Z,29.40
2023-03-16T00:03:58.871Z,30.60
2023-03-16T00:06:28.233Z,27.60
2023-03-16T00:08:59.300Z,29.80
2023-03-16T00:11:27.663Z,28.40
2023-03-16T00:13:56.627Z,27.80
2023-03-16T00:16:25.404Z,30.50
2023-03-16T00:18:55.599Z,26.90
2023-03-16T00:21:23.776Z,28.60
2023-03-16T00:23:53.703Z,31.40
2023-03-16T00:26:22.803Z,28.00
2023-03-16T00:28:54.541Z,30.60
2023-03-16T00:31:25.246Z,29.80
2023-03-16T00:33:53.830Z,28.10
2023-03-16T00:36:22.972Z,27.70
2023-03-16T00:38:51.519Z,27.90
2023-03-16T00:41:23.078Z,28.90
2023-03-16T00:43:54.830Z,26.80
2023-03-16T00:46:26.805Z,26.00
2023-03-16T00:48:55.752Z,30.10
2023-03-16T00:51:24.060Z,29.10
2023-03-16T00:53:52.925Z,26.20
2023-03-16T00:56:24.297Z,25.40
2023-03-16T00:58:57.993Z,26.80
2023-03-16T01:01:27.709Z,24.60
2023-03-16T01:04:01.964Z,30.00
2023-03-16T01:06:32.109Z,28.50
2023-03-16T01:09:01.479Z,27.10
2023-03-16T01:11:30.262Z,28.00
2023-03-16T01:14:04.709Z,29.50
2023-03-16T01:16:34.123Z,28.10
2023-03-16T01:19:05.079Z,26.40
2023-03-16T01:21:34.065Z,24.20
2023-03-16T01:24:03.102Z,30.00
2023-03-16T01:26:32.618Z,29.50
2023-03-16T01:29:04.314Z,27.80
2023-03-16T01:31:32.844Z,27.40
2023-03-16T01:34:04.354Z,28.30
2023-03-16T01:36:35.314Z,25.00
2023-03-16T01:39:06.962Z,26.00
2023-03-16T01:41:43.170Z,28.10
2023-03-16T01:44:18.141Z,26.10
2023-03-16T01:46:46.634Z,29.30
2023-03-16T01:49:17.264Z,27.50
2023-03-16T01:51:59.309Z,25.80
2023-03-16T01:54:34.204Z,26.90
2023-03-16T01:57:09.329Z,27.30
2023-03-16T01:59:40.545Z,28.70
2023-03-16T02:02:09.810Z,25.90
2023-03-16T02:04:53.373Z,28.40
2023-03-16T02:07:24.921Z,30.00
2023-03-16T02:09:56.885Z,31.70
2023-03-16T02:12:25.687Z,30.20
2023-03-16T02:14:56.621Z,27.50
2023-03-16T02:17:27.544Z,30.90
2023-03-16T02:20:13.964Z,33.40
2023-03-16T02:22:47.949Z,30.80
2023-03-16T02:25:17.508Z,31.00
2023-03-16T02:28:11.123Z,29.90
2023-03-16T02:30:44.177Z,29.00
2023-03-16T02:33:12.964Z,32.10
2023-03-16T02:35:41.480Z,29.70
2023-03-16T02:38:11.215Z,32.60
2023-03-16T02:40:44.856Z,29.50
2023-03-16T02:43:21.592Z,33.60
2023-03-16T02:46:00.726Z,26.50
2023-03-16T02:48:43.500Z,27.50
2023-03-16T02:51:13.724Z,28.30
2023-03-16T02:53:42.016Z,26.50
2023-03-16T02:56:14.313Z,24.50
2023-03-16T02:58:44.385Z,28.20
2023-03-16T03:01:17.677Z,24.30
2023-03-16T03:03:50.719Z,24.80
2023-03-16T03:06:19.093Z,23.60
2023-03-16T03:08:48.659Z,25.50
2023-03-16T03:11:20.041Z,26.30
2023-03-16T03:13:48.317Z,21.70
2023-03-16T03:16:19.855Z,19.20
2023-03-16T03:18:53.051Z,22.90
2023-03-16T03:21:24.954Z,25.50
2023-03-16T03:23:54.101Z,20.80
2023-03-16T03:26:22.359Z,19.50
2023-03-16T03:28:52.860Z,18.70
2023-03-16T03:31:22.262Z,16.00
2023-03-16T03:33:53.833Z,19.30
2023-03-16T03:36:23.445Z,17.50
2023-03-16T03:38:55.143Z,19.00
2023-03-16T03:41:23.775Z,20.90
2023-03-16T03:43:52.600Z,20.30
2023-03-16T03:46:27.353Z,20.30
2023-03-16T03:49:04.150Z,21.00
2023-03-16T03:51:34.124Z,20.00
2023-03-16T03:54:07.379Z,21.40
2023-03-16T03:56:53.390Z,18.70
2023-03-16T03:59:22.876Z,17.60
2023-03-16T04:02:20.241Z,19.60
2023-03-16T04:04:52.089Z,21.40
2023-03-16T04:07:21.676Z,18.30
2023-03-16T04:09:50.588Z,20.30
2023-03-16T04:12:35.535Z,23.20
2023-03-16T04:15:05.079Z,25.20
2023-03-16T04:17:44.899Z,22.70
2023-03-16T04:20:16.390Z,28.00
2023-03-16T04:22:46.365Z,23.40
2023-03-16T04:25:17.019Z,22.90
2023-03-16T04:27:51.676Z,20.90
2023-03-16T04:30:20.955Z,26.90
2023-03-16T04:32:52.779Z,24.30
2023-03-16T04:35:22.357Z,22.70
2023-03-16T04:37:59.322Z,26.40
2023-03-16T04:40:35.382Z,27.70
2023-03-16T04:43:17.339Z,23.50
2023-03-16T04:46:12.038Z,25.00
2023-03-16T04:48:40.681Z,31.60
2023-03-16T04:51:12.290Z,31.40
2023-03-16T04:53:45.064Z,32.70
2023-03-16T04:56:24.836Z,27.50
2023-03-16T04:58:57.881Z,32.00
2023-03-16T05:01:31.368Z,28.20
2023-03-16T05:04:02.729Z,26.20
2023-03-16T05:06:32.178Z,25.00
2023-03-16T05:09:01.248Z,22.20
2023-03-16T05:11:30.909Z,22.20
2023-03-16T05:14:07.836Z,22.60
2023-03-16T05:16:43.443Z,24.10
2023-03-16T05:19:12.789Z,24.00
2023-03-16T05:21:42.915Z,22.60
2023-03-16T05:24:12.407Z,22.10
2023-03-16T05:26:41.270Z,23.30
2023-03-16T05:29:12.017Z,20.90
2023-03-16T05:31:40.500Z,20.90
2023-03-16T05:34:17.708Z,29.20
2023-03-16T05:36:46.362Z,24.60
2023-03-16T05:39:16.664Z,25.60
2023-03-16T05:41:48.991Z,25.90
2023-03-16T05:44:30.351Z,24.00
2023-03-16T05:47:09.822Z,22.60
2023-03-16T05:49:41.682Z,27.00
2023-03-16T05:52:16.163Z,25.50
2023-03-16T05:54:46.193Z,27.70
2023-03-16T05:57:20.923Z,24.30
2023-03-16T05:59:53.115Z,22.20
2023-03-16T06:02:22.007Z,25.60
2023-03-16T06:04:52.214Z,24.70
2023-03-16T06:07:21.211Z,22.90
2023-03-16T06:09:51.397Z,25.90
2023-03-16T06:12:24.034Z,25.80
2023-03-16T06:14:52.426Z,25.90
2023-03-16T06:17:23.617Z,23.00
2023-03-16T06:19:53.691Z,24.40
2023-03-16T06:22:22.045Z,24.60
2023-03-16T06:24:55.606Z,26.20
2023-03-16T06:27:28.730Z,27.10
2023-03-16T06:30:13.084Z,29.00
2023-03-16T06:32:45.892Z,29.20
2023-03-16T06:35:14.383Z,25.90
2023-03-16T06:37:48.299Z,26.90
2023-03-16T06:40:41.671Z,29.30
2023-03-16T06:43:14.070Z,29.30
2023-03-16T06:45:44.556Z,27.70
2023-03-16T06:48:13.139Z,28.70
2023-03-16T06:50:46.926Z,28.80
2023-03-16T06:53:16.460Z,27.90
2023-03-16T06:55:45.198Z,27.90
2023-03-16T06:58:14.260Z,28.70
2023-03-16T07:00:47.649Z,29.80
2023-03-16T07:03:15.987Z,28.60
2023-03-16T07:05:48.584Z,26.30
2023-03-16T07:08:20.989Z,31.10
2023-03-16T07:10:51.706Z,25.30
2023-03-16T07:13:21.145Z,23.70
2023-03-16T07:15:55.834Z,24.90
2023-03-16T07:18:26.359Z,25.20
2023-03-16T07:20:55.217Z,22.50
2023-03-16T07:23:26.089Z,25.50
2023-03-16T07:25:57.910Z,25.90
2023-03-16T07:28:28.188Z,24.50
2023-03-16T07:31:03.808Z,23.60
2023-03-16T07:33:38.180Z,24.90
2023-03-16T07:36:10.971Z,26.10
2023-03-16T07:38:43.302Z,23.60
2023-03-16T07:41:14.273Z,23.60
2023-03-16T07:43:44.662Z,22.80
2023-03-16T07:46:20.251Z,23.00
2023-03-16T07:48:49.028Z,23.20
2023-03-16T07:51:17.325Z,23.90
2023-03-16T07:53:54.577Z,23.20
2023-03-16T07:56:33.741Z,20.90
2023-03-16T07:59:22.443Z,23.70
2023-03-16T08:01:54.253Z,22.90
2023-03-16T08:04:22.516Z,23.80
2023-03-16T08:06:54.147Z,24.60
2023-03-16T08:09:25.686Z,27.80
2023-03-16T08:11:55.472Z,23.00
2023-03-16T08:14:23.999Z,24.80
2023-03-16T08:17:02.075Z,24.00
2023-03-16T08:19:34.579Z,23.30
2023-03-16T08:22:04.019Z,22.80
2023-03-16T08:24:38.904Z,23.00
2023-03-16T08:27:08.231Z,21.60
2023-03-16T08:29:42.230Z,22.60
2023-03-16T08:32:45.923Z,25.50
2023-03-16T08:35:15.671Z,22.80
2023-03-16T08:37:44.508Z,22.40
2023-03-16T08:40:16.440Z,22.10
2023-03-16T08:42:46.123Z,23.30
2023-03-16T08:45:21.463Z,22.90
2023-03-16T08:47:50.656Z,21.70
2023-03-16T08:50:21.375Z,21.20
2023-03-16T08:52:51.177Z,27.40
2023-03-16T08:55:20.434Z,24.70
2023-03-16T08:57:49.862Z,25.50
2023-03-16T09:00:20.612Z,23.80
2023-03-16T09:06:32.574Z,20.00
2023-03-16T09:09:32.566Z,17.30
2023-03-16T09:12:06.949Z,20.40
2023-03-16T09:14:37.832Z,22.10
2023-03-16T09:17:08.028Z,20.40
2023-03-16T09:19:50.468Z,19.00
2023-03-16T09:25:14.799Z,18.10
2023-03-16T09:28:08.963Z,19.70
2023-03-16T09:31:08.489Z,17.80
2023-03-16T09:33:37.180Z,16.80
2023-03-16T09:36:13.759Z,16.30
2023-03-16T09:38:44.796Z,19.40
2023-03-16T09:41:43.054Z,19.30
2023-03-16T09:44:28.252Z,21.40
2023-03-16T09:46:57.511Z,20.70
2023-03-16T09:49:28.693Z,18.90
2023-03-16T09:52:30.490Z,22.00
2023-03-16T10:03:20.031Z,22.20
2023-03-16T10:05:56.335Z,21.10
2023-03-16T10:08:43.585Z,20.90
2023-03-16T10:11:33.264Z,20.80
2023-03-16T10:14:02.768Z,22.40
2023-03-16T10:16:35.652Z,21.80
2023-03-16T10:19:16.398Z,21.40
2023-03-16T10:21:45.341Z,24.20
2023-03-16T10:24:30.909Z,26.10
2023-03-16T10:27:00.745Z,26.30
2023-03-16T10:29:30.563Z,34.80
2023-03-16T10:32:10.612Z,45.60
2023-03-16T10:34:39.730Z,51.20
2023-03-16T10:37:09.971Z,54.00
2023-03-16T10:39:44.592Z,61.00
2023-03-16T10:42:17.105Z,62.00
2023-03-16T10:44:47.105Z,68.90
2023-03-16T10:47:26.593Z,71.60
2023-03-16T10:49:59.523Z,74.00
2023-03-16T10:52:50.668Z,77.70
2023-03-16T10:55:35.469Z,78.70
2023-03-16T10:58:05.085Z,70.70
2023-03-16T11:00:58.942Z,75.50
2023-03-16T11:03:29.308Z,68.40
2023-03-16T11:06:03.603Z,70.40
2023-03-16T11:08:37.603Z,52.40
2023-03-16T11:11:39.989Z,56.50
2023-03-16T11:14:13.049Z,55.70
2023-03-16T11:16:55.501Z,51.80
2023-03-16T11:19:32.007Z,52.90
2023-03-16T11:22:15.315Z,57.70
2023-03-16T11:25:15.816Z,53.10
2023-03-16T11:27:59.707Z,50.70
2023-03-16T11:30:39.401Z,51.70
2023-03-16T11:33:12.823Z,51.50
2023-03-16T11:35:59.486Z,45.80
2023-03-16T11:38:57.295Z,42.00
2023-03-16T11:41:42.231Z,36.00
2023-03-16T11:44:34.891Z,35.80
2023-03-16T11:47:21.094Z,34.90
2023-03-16T11:50:00.339Z,34.90
2023-03-16T11:53:10.210Z,36.80
2023-03-16T11:56:13.966Z,39.20
2023-03-16T11:59:21.960Z,41.60
2023-03-16T12:02:43.399Z,38.40
2023-03-16T12:05:19.991Z,28.00
2023-03-16T12:08:06.709Z,23.90
2023-03-16T12:10:50.225Z,22.80
2023-03-16T12:13:36.679Z,24.10
2023-03-16T12:16:33.082Z,27.80
2023-03-16T12:19:16.971Z,31.50
2023-03-16T12:21:50.275Z,29.90
2023-03-16T12:24:25.522Z,34.80
2023-03-16T12:26:56.197Z,27.30
2023-03-16T12:29:42.144Z,23.60
2023-03-16T12:32:36.756Z,26.00
2023-03-16T12:35:41.917Z,24.50
2023-03-16T12:38:16.855Z,18.70
2023-03-16T12:40:49.115Z,18.20
2023-03-16T12:44:07.425Z,19.70
2023-03-16T12:47:00.105Z,20.40
2023-03-16T12:49:33.608Z,19.80
2023-03-16T12:52:07.191Z,19.90
2023-03-16T12:54:36.147Z,18.20
2023-03-16T12:57:07.339Z,15.30
2023-03-16T12:59:43.167Z,14.70
2023-03-16T13:02:25.280Z,15.60
2023-03-16T13:05:40.180Z,14.60
2023-03-16T13:08:14.876Z,14.90
2023-03-16T13:10:44.086Z,13.80
2023-03-16T13:13:15.399Z,13.60
2023-03-16T13:15:47.760Z,10.00
2023-03-16T13:18:17.578Z,13.50
2023-03-16T13:21:04.631Z,10.70
2023-03-16T13:24:16.019Z,12.70
2023-03-16T13:26:50.950Z,11.50
2023-03-16T13:29:29.722Z,11.40
2023-03-16T13:31:59.591Z,10.10
2023-03-16T13:34:30.749Z,10.60
2023-03-16T13:36:59.792Z,11.20
2023-03-16T13:39:31.802Z,10.10
2023-03-16T13:42:18.035Z,10.80
2023-03-16T13:48:40.510Z,11.20
2023-03-16T13:51:16.240Z,10.10
2023-03-16T13:53:44.908Z,8.90
2023-03-16T13:56:21.746Z,9.40
2023-03-16T13:58:51.453Z,9.50
2023-03-16T14:01:45.787Z,10.10
2023-03-16T14:04:16.226Z,11.40
2023-03-16T14:06:55.246Z,10.00
2023-03-16T14:09:27.486Z,10.90
2023-03-16T14:11:56.478Z,11.30
2023-03-16T14:14:29.884Z,10.70
2023-03-16T14:17:11.153Z,11.50
2023-03-16T14:19:57.126Z,11.60
2023-03-16T14:22:34.756Z,11.20
2023-03-16T14:25:04.894Z,13.20
2023-03-16T14:27:43.960Z,11.50
2023-03-16T14:30:25.194Z,11.00
2023-03-16T14:33:01.928Z,12.90
2023-03-16T14:35:41.635Z,10.80
2023-03-16T14:38:22.659Z,11.60
2023-03-16T14:40:58.140Z,12.00
2023-03-16T14:43:33.026Z,11.90
2023-03-16T14:46:01.835Z,11.80
2023-03-16T14:48:30.441Z,12.00
2023-03-16T14:51:00.192Z,10.90
2023-03-16T14:53:29.913Z,11.50
2023-03-16T14:55:59.635Z,14.70
2023-03-16T14:58:30.496Z,14.30
2023-03-16T15:01:01.961Z,17.80
2023-03-16T15:03:34.585Z,12.60
2023-03-16T15:06:03.242Z,13.70
2023-03-16T15:08:33.932Z,14.80
2023-03-16T15:11:05.096Z,13.30
2023-03-16T15:13:42.411Z,14.70
2023-03-16T15:16:11.798Z,18.30
2023-03-16T15:18:40.473Z,26.50
2023-03-16T15:21:35.615Z,33.20
2023-03-16T15:24:11.196Z,37.00
2023-03-16T15:26:41.028Z,36.60
2023-03-16T15:32:07.083Z,42.00
2023-03-16T15:34:37.789Z,42.50
2023-03-16T15:37:15.644Z,37.80
2023-03-16T15:39:46.404Z,33.70
2023-03-16T15:42:18.729Z,32.50
2023-03-16T15:44:49.123Z,38.60
2023-03-16T15:47:17.488Z,38.10
2023-03-16T15:49:50.816Z,37.90
2023-03-16T15:52:26.937Z,37.00
2023-03-16T15:54:57.673Z,33.20
2023-03-16T15:57:25.875Z,36.10
2023-03-16T15:59:54.868Z,36.60
2023-03-16T16:02:30.301Z,37.20
2023-03-16T16:05:02.133Z,30.90
2023-03-16T16:07:35.085Z,32.20
2023-03-16T16:10:04.498Z,34.50
2023-03-16T16:12:33.756Z,32.30
2023-03-16T16:15:04.186Z,34.60
2023-03-16T16:17:50.727Z,34.00
2023-03-16T16:20:24.304Z,36.70
2023-03-16T16:22:52.884Z,36.50
2023-03-16T16:25:23.426Z,34.90
2023-03-16T16:27:52.101Z,37.00
2023-03-16T16:30:34.751Z,37.20
2023-03-16T16:33:03.458Z,33.60
2023-03-16T16:35:33.982Z,38.90
2023-03-16T16:38:02.763Z,42.30
2023-03-16T16:40:39.352Z,45.60
2023-03-16T16:43:07.663Z,45.00
2023-03-16T16:45:36.183Z,45.10
2023-03-16T16:48:07.450Z,53.30
2023-03-16T16:50:35.693Z,45.60
2023-03-16T16:53:14.583Z,49.50
2023-03-16T16:55:43.655Z,47.70
2023-03-16T16:58:23.474Z,45.80
2023-03-16T17:00:55.196Z,49.50
2023-03-16T17:03:27.315Z,50.40
2023-03-16T17:05:58.287Z,52.90
2023-03-16T17:08:30.113Z,52.50
2023-03-16T17:10:59.258Z,55.00
2023-03-16T17:13:30.028Z,53.10
2023-03-16T17:15:59.006Z,51.70
2023-03-16T17:18:27.290Z,54.00
2023-03-16T17:21:00.992Z,53.00
2023-03-16T17:31:07.249Z,49.90
2023-03-16T17:33:35.805Z,44.10
2023-03-16T17:36:06.934Z,42.70
2023-03-16T17:38:39.092Z,45.40
2023-03-16T17:41:17.768Z,45.50
2023-03-16T17:43:47.777Z,40.10
2023-03-16T17:46:45.248Z,44.90
2023-03-16T17:49:20.885Z,49.00
2023-03-16T17:51:50.589Z,50.10
2023-03-16T17:54:25.224Z,50.70
2023-03-16T17:56:55.522Z,57.80
2023-03-16T17:59:24.018Z,54.30
2023-03-16T18:01:52.661Z,50.60
2023-03-16T18:04:23.769Z,49.40
2023-03-16T18:06:52.619Z,48.50
2023-03-16T18:09:21.780Z,54.20
2023-03-16T18:11:50.572Z,48.90
2023-03-16T18:14:36.902Z,48.60
2023-03-16T18:17:27.226Z,43.30
2023-03-16T18:19:57.228Z,46.10
2023-03-16T18:22:26.244Z,47.00
2023-03-16T18:24:56.122Z,48.70
2023-03-16T18:27:25.925Z,48.10
2023-03-16T18:36:38.561Z,55.80
2023-03-16T18:39:19.330Z,53.90
2023-03-16T18:41:48.445Z,57.40
2023-03-16T18:44:24.217Z,59.30
2023-03-16T18:46:57.121Z,57.50
2023-03-16T18:49:36.071Z,61.50
2023-03-16T18:52:11.833Z,68.80
2023-03-16T18:54:45.671Z,72.00
2023-03-16T18:57:18.928Z,73.90
2023-03-16T18:59:49.841Z,57.20
2023-03-16T19:02:35.224Z,32.80
2023-03-16T19:05:16.978Z,28.70
2023-03-16T19:07:47.312Z,29.00
2023-03-16T19:10:22.402Z,30.00
2023-03-16T19:12:52.870Z,28.90
2023-03-16T19:15:26.783Z,24.90
2023-03-16T19:17:56.528Z,25.20
2023-03-16T19:20:30.094Z,26.00
2023-03-16T19:23:06.013Z,27.70
2023-03-16T19:25:36.212Z,26.70
2023-03-16T19:28:06.537Z,29.00
2023-03-16T19:30:37.626Z,32.10
2023-03-16T19:33:26.105Z,27.00
2023-03-16T19:35:55.905Z,26.50
2023-03-16T19:38:26.020Z,23.60
2023-03-16T19:40:59.132Z,22.30
2023-03-16T19:43:29.448Z,29.10
2023-03-16T19:45:59.643Z,31.50
2023-03-16T19:48:33.794Z,33.20
2023-03-16T19:51:05.132Z,36.90
2023-03-16T19:53:34.150Z,36.00
2023-03-16T19:56:04.055Z,26.00
2023-03-16T19:58:36.309Z,20.90
2023-03-16T20:03:36.656Z,22.90
2023-03-16T20:06:05.145Z,21.20
2023-03-16T20:08:34.292Z,23.30
2023-03-16T20:11:05.962Z,19.50
2023-03-16T20:13:42.700Z,19.30
2023-03-16T20:16:21.509Z,22.40
2023-03-16T20:18:52.750Z,30.80
2023-03-16T20:21:22.604Z,38.00
2023-03-16T20:23:51.539Z,41.30
2023-03-16T20:26:31.968Z,43.20
2023-03-16T20:29:01.917Z,35.40
2023-03-16T20:31:31.603Z,35.60
2023-03-16T20:34:01.796Z,37.40
2023-03-16T20:36:30.082Z,40.70
2023-03-16T20:39:23.068Z,45.90
2023-03-16T20:41:54.664Z,49.00
2023-03-16T20:44:25.725Z,49.30
2023-03-16T20:46:55.964Z,47.20
2023-03-16T20:49:25.538Z,51.10
2023-03-16T20:54:26.603Z,49.90
2023-03-16T20:56:55.439Z,49.10
2023-03-16T20:59:25.015Z,37.50
2023-03-16T21:02:44.773Z,26.60
2023-03-16T21:05:20.815Z,21.50
2023-03-16T21:07:50.022Z,21.40
2023-03-16T21:10:22.473Z,20.70
2023-03-16T21:12:55.198Z,19.20
2023-03-16T21:15:29.544Z,17.80
2023-03-16T21:18:04.959Z,17.10
2023-03-16T21:20:34.285Z,16.50
2023-03-16T21:23:03.826Z,15.50
2023-03-16T21:25:38.882Z,13.70
2023-03-16T21:28:07.471Z,14.40
2023-03-16T21:30:53.244Z,14.40
2023-03-16T21:33:33.786Z,14.00
2023-03-16T21:36:02.522Z,15.20
2023-03-16T21:38:34.372Z,11.90
2023-03-16T21:43:17.796Z,13.00
2023-03-16T21:45:46.630Z,14.20
2023-03-16T21:48:19.111Z,14.60
2023-03-16T21:50:50.885Z,14.40
2023-03-16T21:53:31.124Z,14.60
2023-03-16T21:56:01.521Z,14.50
2023-03-16T21:58:29.981Z,16.50
2023-03-16T22:00:58.641Z,15.90
2023-03-16T22:03:44.233Z,16.20
2023-03-16T22:06:18.260Z,16.50
2023-03-16T22:08:46.855Z,15.30
2023-03-16T22:14:10.742Z,15.50
2023-03-16T22:16:42.489Z,14.50
2023-03-16T22:19:12.304Z,15.70
2023-03-16T22:21:48.041Z,14.90
2023-03-16T22:24:25.525Z,16.40
2023-03-16T22:26:54.349Z,16.10
2023-03-16T22:29:26.566Z,15.60
2023-03-16T22:32:03.238Z,16.30
2023-03-16T22:34:51.275Z,14.50
2023-03-16T22:37:25.841Z,16.20
2023-03-16T22:39:54.575Z,16.10
2023-03-16T22:42:37.592Z,14.40
2023-03-16T22:45:20.222Z,14.20
2023-03-16T22:47:50.080Z,13.40
2023-03-16T22:50:19.384Z,15.50
2023-03-16T22:52:48.747Z,19.80
2023-03-16T22:55:20.044Z,26.80
2023-03-16T22:57:50.476Z,28.40
2023-03-16T23:00:22.382Z,27.40
2023-03-16T23:02:50.995Z,29.10
2023-03-16T23:05:28.232Z,27.70
2023-03-16T23:08:00.019Z,28.00
2023-03-16T23:10:29.904Z,27.10
2023-03-16T23:12:59.924Z,27.20
2023-03-16T23:15:30.068Z,28.10
2023-03-16T23:17:58.507Z,29.40
2023-03-16T23:20:29.259Z,38.00
2023-03-16T23:23:23.549Z,39.80
2023-03-16T23:25:58.448Z,44.80
2023-03-16T23:28:26.923Z,42.00
2023-03-16T23:30:55.587Z,39.70
2023-03-16T23:33:24.121Z,36.60
2023-03-16T23:35:52.473Z,28.50
2023-03-16T23:38:21.404Z,20.30
2023-03-16T23:40:49.918Z,18.10
2023-03-16T23:43:23.365Z,17.30
2023-03-16T23:45:52.349Z,15.30
2023-03-16T23:48:21.067Z,16.30
2023-03-16T23:50:53.453Z,16.50
2023-03-16T23:53:22.894Z,17.00
2023-03-16T23:55:51.916Z,19.70
2023-03-16T23:58:20.448Z,18.40
